createdAt,value
2022-07-30T00:00:40.489Z,26.38
2022-07-30T00:03:09.827Z,25.10
2022-07-30T00:05:39.123Z,28.70
2022-07-30T00:08:08.026Z,32.17
2022-07-30T00:10:37.352Z,35.80
2022-07-30T00:13:06.783Z,27.83
2022-07-30T00:15:36.028Z,24.92
2022-07-30T00:18:05.172Z,19.88
2022-07-30T00:20:34.471Z,22.70
2022-07-30T00:23:06.065Z,20.63
2022-07-30T00:25:35.149Z,21.77
2022-07-30T00:28:04.278Z,22.90
2022-07-30T00:30:33.414Z,27.38
2022-07-30T00:33:02.623Z,23.35
2022-07-30T00:35:31.557Z,18.52
2022-07-30T00:38:00.762Z,21.63
2022-07-30T00:40:30.393Z,20.75
2022-07-30T00:42:59.563Z,22.02
2022-07-30T00:45:28.772Z,39.40
2022-07-30T00:47:59.881Z,44.63
2022-07-30T00:50:29.049Z,38.35
2022-07-30T00:52:57.881Z,26.73
2022-07-30T00:55:27.152Z,26.38
2022-07-30T00:57:56.388Z,23.63
2022-07-30T01:00:26.358Z,21.65
2022-07-30T01:02:55.924Z,28.30
2022-07-30T01:05:25.345Z,22.52
2022-07-30T01:07:54.434Z,22.35
2022-07-30T01:10:23.668Z,24.05
2022-07-30T01:12:55.589Z,20.00
2022-07-30T01:15:24.895Z,28.52
2022-07-30T01:18:01.371Z,25.30
2022-07-30T01:20:44.502Z,30.42
2022-07-30T01:23:29.262Z,24.45
2022-07-30T01:26:11.374Z,22.77
2022-07-30T01:28:48.085Z,19.38
2022-07-30T01:31:18.755Z,19.33
2022-07-30T01:33:51.240Z,20.58
2022-07-30T01:36:24.702Z,20.77
2022-07-30T01:38:55.836Z,20.58
2022-07-30T01:41:26.314Z,27.73
2022-07-30T01:43:56.049Z,26.17
2022-07-30T01:46:26.827Z,20.80
2022-07-30T01:48:59.561Z,23.98
2022-07-30T01:51:37.417Z,25.75
2022-07-30T01:54:11.092Z,27.48
2022-07-30T01:56:42.355Z,22.02
2022-07-30T01:59:13.055Z,27.85
2022-07-30T02:01:42.945Z,23.38
2022-07-30T02:04:12.304Z,23.75
2022-07-30T02:06:47.720Z,32.47
2022-07-30T02:09:24.498Z,26.45
2022-07-30T02:12:14.831Z,25.05
2022-07-30T02:15:01.878Z,24.17
2022-07-30T02:17:39.797Z,21.00
2022-07-30T02:20:15.022Z,21.92
2022-07-30T02:22:48.429Z,22.27
2022-07-30T02:25:21.828Z,19.27
2022-07-30T02:27:59.473Z,25.52
2022-07-30T02:30:32.748Z,21.38
2022-07-30T02:33:11.788Z,21.95
2022-07-30T02:35:42.681Z,25.48
2022-07-30T02:38:14.884Z,35.38
2022-07-30T02:40:45.794Z,20.17
2022-07-30T02:43:17.605Z,16.67
2022-07-30T02:45:49.507Z,23.20
2022-07-30T02:48:34.641Z,21.50
2022-07-30T02:51:07.094Z,26.70
2022-07-30T02:53:38.741Z,26.35
2022-07-30T02:56:09.519Z,22.40
2022-07-30T02:58:40.610Z,20.35
2022-07-30T03:01:11.528Z,20.52
2022-07-30T03:03:44.092Z,23.77
2022-07-30T03:08:46.301Z,22.05
2022-07-30T03:13:49.298Z,20.52
2022-07-30T03:16:21.264Z,20.42
2022-07-30T03:18:51.217Z,18.50
2022-07-30T03:21:24.136Z,27.58
2022-07-30T03:23:58.035Z,31.33
2022-07-30T03:26:28.727Z,31.80
2022-07-30T03:28:58.638Z,25.40
2022-07-30T03:31:28.411Z,31.70
2022-07-30T03:34:06.439Z,31.58
2022-07-30T03:36:36.941Z,27.92
2022-07-30T03:39:08.463Z,25.85
2022-07-30T03:41:41.669Z,24.33
2022-07-30T03:44:16.409Z,26.48
2022-07-30T03:46:46.916Z,26.67
2022-07-30T03:49:16.508Z,24.25
2022-07-30T03:51:50.853Z,27.05
2022-07-30T03:54:20.774Z,17.90
2022-07-30T03:57:22.516Z,18.08
2022-07-30T03:59:52.729Z,17.85
2022-07-30T04:02:23.683Z,15.85
2022-07-30T04:04:56.545Z,18.20
2022-07-30T04:07:26.269Z,17.88
2022-07-30T04:09:55.519Z,16.10
2022-07-30T04:12:53.787Z,17.48
2022-07-30T04:16:05.458Z,19.65
2022-07-30T04:18:17.152Z,18.95
2022-07-30T04:20:49.897Z,16.02
2022-07-30T04:23:21.251Z,62.92
2022-07-30T04:25:52.687Z,10.88
2022-07-30T04:28:22.972Z,11.05
2022-07-30T04:30:52.118Z,14.77
2022-07-30T04:33:21.177Z,10.27
2022-07-30T04:36:19.859Z,11.05
2022-07-30T04:38:49.041Z,9.93
2022-07-30T04:41:18.009Z,8.90
2022-07-30T04:44:13.091Z,13.35
2022-07-30T04:46:51.434Z,9.02
2022-07-30T04:49:23.590Z,9.52
2022-07-30T04:51:53.377Z,84.03
2022-07-30T04:54:23.994Z,14.35
2022-07-30T04:56:56.824Z,15.75
2022-07-30T04:59:26.878Z,10.35
2022-07-30T05:01:58.882Z,9.80
2022-07-30T05:07:00.555Z,9.18
2022-07-30T05:09:33.279Z,13.20
2022-07-30T05:12:03.575Z,13.07
2022-07-30T05:14:33.267Z,11.25
2022-07-30T05:17:03.513Z,9.77
2022-07-30T05:19:34.010Z,20.15
2022-07-30T05:22:06.556Z,13.57
2022-07-30T05:24:36.790Z,14.93
2022-07-30T05:27:06.310Z,9.10
2022-07-30T05:29:35.387Z,11.35
2022-07-30T05:32:13.376Z,12.10
2022-07-30T05:34:44.938Z,12.15
2022-07-30T05:37:19.761Z,14.15
2022-07-30T05:39:58.772Z,12.30
2022-07-30T05:42:38.572Z,18.20
2022-07-30T05:45:10.830Z,12.45
2022-07-30T05:47:41.441Z,13.23
2022-07-30T05:50:11.149Z,14.23
2022-07-30T05:52:40.104Z,15.93
2022-07-30T05:55:29.573Z,16.42
2022-07-30T05:58:12.905Z,15.18
2022-07-30T06:00:42.620Z,12.65
2022-07-30T06:03:12.975Z,13.07
2022-07-30T06:06:05.081Z,16.63
2022-07-30T06:08:35.172Z,10.73
2022-07-30T06:11:04.488Z,10.75
2022-07-30T06:13:36.753Z,13.05
2022-07-30T06:16:06.809Z,15.77
2022-07-30T06:18:40.043Z,12.65
2022-07-30T06:21:17.186Z,16.95
2022-07-30T06:24:06.915Z,14.48
2022-07-30T06:26:42.631Z,13.43
2022-07-30T06:29:13.391Z,12.13
2022-07-30T06:31:43.438Z,12.52
2022-07-30T06:34:14.657Z,14.70
2022-07-30T06:36:45.154Z,18.40
2022-07-30T06:39:55.955Z,15.88
2022-07-30T06:42:31.161Z,15.50
2022-07-30T06:45:22.739Z,15.88
2022-07-30T06:48:11.903Z,20.83
2022-07-30T06:50:44.063Z,18.25
2022-07-30T06:53:13.797Z,20.02
2022-07-30T06:56:02.471Z,16.67
2022-07-30T06:58:41.287Z,16.88
2022-07-30T07:01:28.933Z,19.40
2022-07-30T07:03:59.541Z,16.33
2022-07-30T07:06:28.805Z,20.73
2022-07-30T07:08:57.959Z,14.98
2022-07-30T07:11:36.194Z,22.45
2022-07-30T07:14:10.339Z,17.00
2022-07-30T07:16:39.891Z,23.85
2022-07-30T07:20:00.217Z,18.70
2022-07-30T07:22:26.041Z,20.20
2022-07-30T07:24:55.671Z,17.13
2022-07-30T07:27:28.625Z,17.20
2022-07-30T07:30:05.758Z,17.77
2022-07-30T07:32:38.995Z,16.55
2022-07-30T07:35:10.298Z,22.08
2022-07-30T07:37:43.101Z,18.23
2022-07-30T07:40:20.464Z,22.23
2022-07-30T07:42:49.452Z,23.15
2022-07-30T07:45:21.563Z,19.67
2022-07-30T07:47:59.683Z,17.90
2022-07-30T07:50:59.765Z,26.58
2022-07-30T07:53:33.148Z,24.20
2022-07-30T07:56:02.213Z,20.23
2022-07-30T07:58:31.958Z,26.35
2022-07-30T08:01:03.341Z,24.17
2022-07-30T08:03:52.867Z,26.23
2022-07-30T08:06:54.119Z,24.73
2022-07-30T08:09:44.578Z,29.85
2022-07-30T08:12:21.174Z,42.00
2022-07-30T08:15:10.698Z,35.38
2022-07-30T08:18:20.497Z,39.65
2022-07-30T08:21:03.040Z,37.10
2022-07-30T08:23:34.213Z,39.63
2022-07-30T08:26:03.561Z,41.63
2022-07-30T08:28:35.953Z,34.00
2022-07-30T08:31:08.820Z,34.90
2022-07-30T08:33:38.691Z,40.67
2022-07-30T08:36:10.200Z,55.75
2022-07-30T08:38:40.595Z,41.57
2022-07-30T08:41:10.759Z,46.15
2022-07-30T08:43:41.493Z,41.17
2022-07-30T08:46:14.037Z,45.67
2022-07-30T08:48:58.413Z,56.47
2022-07-30T08:51:28.433Z,52.03
2022-07-30T08:54:36.712Z,70.90
2022-07-30T08:57:06.779Z,64.82
2022-07-30T09:02:33.041Z,64.57
2022-07-30T09:05:07.138Z,61.28
2022-07-30T09:07:37.399Z,66.13
2022-07-30T09:10:11.306Z,63.22
2022-07-30T09:12:46.515Z,54.78
2022-07-30T09:15:18.348Z,60.70
2022-07-30T09:17:53.851Z,68.47
2022-07-30T09:20:29.206Z,70.05
2022-07-30T09:23:02.311Z,66.95
2022-07-30T09:25:45.996Z,61.47
2022-07-30T09:28:36.524Z,55.50
2022-07-30T09:32:05.242Z,51.78
2022-07-30T09:34:53.228Z,57.90
2022-07-30T09:37:41.420Z,61.63
2022-07-30T09:40:32.239Z,65.70
2022-07-30T09:43:23.275Z,69.68
2022-07-30T09:46:01.789Z,78.53
2022-07-30T09:48:31.063Z,67.15
2022-07-30T09:51:00.492Z,81.03
2022-07-30T09:53:30.950Z,84.03
2022-07-30T09:56:00.997Z,89.70
2022-07-30T09:58:46.187Z,97.30
2022-07-30T10:01:16.989Z,94.65
2022-07-30T10:04:34.472Z,92.25
2022-07-30T10:07:25.525Z,93.32
2022-07-30T10:10:02.068Z,99.25
2022-07-30T10:12:38.975Z,97.15
2022-07-30T10:15:13.445Z,90.45
2022-07-30T10:17:43.796Z,92.60
2022-07-30T10:20:22.875Z,85.28
2022-07-30T10:23:15.881Z,90.63
2022-07-30T10:26:04.477Z,78.03
2022-07-30T10:28:53.762Z,81.53
2022-07-30T10:31:49.490Z,72.95
2022-07-30T10:34:13.479Z,80.57
2022-07-30T10:36:49.001Z,82.63
2022-07-30T10:39:34.631Z,83.18
2022-07-30T10:42:29.677Z,80.47
2022-07-30T10:45:29.641Z,89.05
2022-07-30T10:47:59.769Z,79.43
2022-07-30T10:50:30.322Z,82.88
2022-07-30T10:53:05.214Z,76.38
2022-07-30T10:55:39.174Z,76.25
2022-07-30T10:58:15.505Z,83.63
2022-07-30T11:01:05.294Z,89.25
2022-07-30T11:04:20.527Z,80.78
2022-07-30T11:06:50.915Z,88.97
2022-07-30T11:09:41.836Z,79.90
2022-07-30T11:12:12.962Z,79.53
2022-07-30T11:14:48.520Z,87.22
2022-07-30T11:17:19.831Z,87.47
2022-07-30T11:20:11.682Z,84.87
2022-07-30T11:22:42.420Z,83.35
2022-07-30T11:25:51.209Z,84.10
2022-07-30T11:28:41.710Z,89.63
2022-07-30T11:31:54.963Z,79.53
2022-07-30T11:34:25.772Z,78.95
2022-07-30T11:37:18.621Z,80.07
2022-07-30T11:39:57.815Z,88.25
2022-07-30T11:42:30.076Z,76.95
2022-07-30T11:45:17.818Z,77.97
2022-07-30T11:47:49.513Z,83.38
2022-07-30T11:50:36.067Z,98.20
2022-07-30T11:53:11.762Z,84.57
2022-07-30T11:55:44.971Z,78.00
2022-07-30T11:58:34.524Z,80.03
2022-07-30T12:01:09.025Z,89.75
2022-07-30T12:03:42.855Z,80.65
2022-07-30T12:06:19.007Z,82.53
2022-07-30T12:08:57.881Z,71.38
2022-07-30T12:11:34.099Z,80.88
2022-07-30T12:14:03.877Z,86.72
2022-07-30T12:16:34.155Z,66.40
2022-07-30T12:19:05.577Z,69.53
2022-07-30T12:21:35.277Z,69.53
2022-07-30T12:24:11.083Z,72.28
2022-07-30T12:26:40.826Z,69.72
2022-07-30T12:29:14.288Z,82.15
2022-07-30T12:31:43.846Z,76.88
2022-07-30T12:34:27.279Z,83.25
2022-07-30T12:36:56.474Z,72.40
2022-07-30T12:39:28.752Z,71.40
2022-07-30T12:41:58.151Z,68.72
2022-07-30T12:44:38.880Z,72.68
2022-07-30T12:47:21.688Z,66.50
2022-07-30T12:49:53.442Z,69.90
2022-07-30T12:52:32.230Z,66.97
2022-07-30T12:55:10.870Z,72.03
2022-07-30T12:58:07.133Z,42.83
2022-07-30T13:00:46.051Z,23.75
2022-07-30T13:03:26.122Z,36.75
2022-07-30T13:05:59.042Z,26.25
2022-07-30T13:08:47.391Z,22.75
2022-07-30T13:11:17.360Z,25.25
2022-07-30T13:13:46.959Z,26.85
2022-07-30T13:16:16.509Z,29.40
2022-07-30T13:18:46.084Z,19.20
2022-07-30T13:21:16.133Z,19.58
2022-07-30T13:23:45.186Z,23.70
2022-07-30T13:26:14.774Z,29.85
2022-07-30T13:28:44.256Z,28.10
2022-07-30T13:31:14.263Z,27.60
2022-07-30T13:33:43.532Z,29.08
2022-07-30T13:36:13.255Z,19.98
2022-07-30T13:38:42.716Z,24.92
2022-07-30T13:41:12.531Z,25.85
2022-07-30T13:43:41.647Z,26.40
2022-07-30T13:46:10.642Z,26.98
2022-07-30T13:48:40.438Z,27.83
2022-07-30T13:51:09.472Z,24.52
2022-07-30T13:53:38.806Z,28.38
2022-07-30T13:56:12.598Z,24.35
2022-07-30T13:58:42.822Z,23.67
2022-07-30T14:01:17.958Z,28.23
2022-07-30T14:03:50.896Z,32.42
2022-07-30T14:06:20.856Z,25.88
2022-07-30T14:08:50.081Z,28.85
2022-07-30T14:11:19.606Z,24.50
2022-07-30T14:13:51.710Z,29.73
2022-07-30T14:19:23.037Z,26.30
2022-07-30T14:21:55.137Z,22.60
2022-07-30T14:24:25.107Z,21.98
2022-07-30T14:26:57.950Z,24.10
2022-07-30T14:29:28.910Z,27.15
2022-07-30T14:31:58.266Z,26.52
2022-07-30T14:34:27.641Z,22.55
2022-07-30T14:36:56.879Z,22.67
2022-07-30T14:39:27.520Z,27.90
2022-07-30T14:41:57.486Z,27.90
2022-07-30T14:44:26.777Z,24.05
2022-07-30T14:46:56.400Z,24.40
2022-07-30T14:49:26.451Z,32.75
2022-07-30T14:51:56.570Z,30.80
2022-07-30T14:54:25.775Z,27.02
2022-07-30T14:56:58.436Z,31.23
2022-07-30T14:59:29.550Z,37.95
2022-07-30T15:01:59.347Z,28.23
2022-07-30T15:04:29.115Z,31.27
2022-07-30T15:06:58.801Z,37.88
2022-07-30T15:09:28.501Z,18.38
2022-07-30T15:12:09.324Z,27.67
2022-07-30T15:14:41.128Z,28.52
2022-07-30T15:17:10.543Z,26.48
2022-07-30T15:19:50.323Z,25.13
2022-07-30T15:22:21.373Z,21.23
2022-07-30T15:24:50.671Z,28.42
2022-07-30T15:27:22.438Z,27.42
2022-07-30T15:29:57.185Z,36.13
2022-07-30T15:32:26.414Z,38.15
2022-07-30T15:34:59.781Z,35.58
2022-07-30T15:37:29.395Z,38.55
2022-07-30T15:39:59.131Z,25.83
2022-07-30T15:42:28.331Z,23.83
2022-07-30T15:45:16.138Z,28.63
2022-07-30T15:47:47.076Z,27.55
2022-07-30T15:50:18.158Z,25.77
2022-07-30T15:52:47.656Z,24.95
2022-07-30T15:55:18.040Z,27.17
2022-07-30T15:57:49.464Z,38.10
2022-07-30T16:00:19.030Z,30.57
2022-07-30T16:02:48.055Z,27.15
2022-07-30T16:05:17.676Z,29.67
2022-07-30T16:07:46.593Z,30.23
2022-07-30T16:10:16.708Z,35.75
2022-07-30T16:12:46.098Z,29.63
2022-07-30T16:15:16.329Z,28.55
2022-07-30T16:17:45.879Z,26.05
2022-07-30T16:20:15.204Z,24.77
2022-07-30T16:22:44.535Z,34.78
2022-07-30T16:25:14.356Z,29.13
2022-07-30T16:27:44.020Z,33.70
2022-07-30T16:30:13.959Z,24.17
2022-07-30T16:32:43.108Z,32.05
2022-07-30T16:35:13.451Z,32.30
2022-07-30T16:37:43.356Z,29.20
2022-07-30T16:40:13.075Z,29.70
2022-07-30T16:42:42.215Z,28.20
2022-07-30T16:45:11.688Z,26.38
2022-07-30T16:47:40.958Z,31.58
2022-07-30T16:50:10.912Z,45.47
2022-07-30T16:52:40.042Z,35.17
2022-07-30T16:55:10.647Z,31.50
2022-07-30T16:57:39.678Z,29.25
2022-07-30T17:00:10.127Z,31.65
2022-07-30T17:02:39.688Z,29.08
2022-07-30T17:05:13.321Z,32.72
2022-07-30T17:07:43.268Z,35.47
2022-07-30T17:10:13.318Z,30.17
2022-07-30T17:12:51.057Z,29.67
2022-07-30T17:15:20.662Z,27.38
2022-07-30T17:18:05.255Z,28.40
2022-07-30T17:20:35.458Z,30.67
2022-07-30T17:23:05.689Z,28.13
2022-07-30T17:25:35.264Z,29.45
2022-07-30T17:28:04.855Z,27.25
2022-07-30T17:30:34.552Z,27.10
2022-07-30T17:33:05.987Z,32.10
2022-07-30T17:35:35.584Z,29.50
2022-07-30T17:38:05.104Z,30.50
2022-07-30T17:40:34.380Z,35.67
2022-07-30T17:43:08.542Z,32.67
2022-07-30T17:45:38.448Z,32.45
2022-07-30T17:48:09.400Z,33.15
2022-07-30T17:50:39.106Z,32.80
2022-07-30T17:53:08.452Z,29.70
2022-07-30T17:55:38.288Z,30.85
2022-07-30T17:58:07.915Z,24.92
2022-07-30T18:00:37.511Z,26.35
2022-07-30T18:03:06.797Z,26.27
2022-07-30T18:05:36.229Z,27.80
2022-07-30T18:08:05.551Z,27.58
2022-07-30T18:10:35.005Z,26.42
2022-07-30T18:13:25.939Z,23.67
2022-07-30T18:15:54.123Z,23.92
2022-07-30T18:18:23.225Z,27.30
2022-07-30T18:20:52.483Z,28.77
2022-07-30T18:23:21.688Z,30.10
2022-07-30T18:25:54.463Z,28.75
2022-07-30T18:28:24.904Z,29.35
2022-07-30T18:30:56.005Z,22.67
2022-07-30T18:33:25.821Z,29.37
2022-07-30T18:35:55.186Z,28.02
2022-07-30T18:38:24.619Z,27.63
2022-07-30T18:41:00.112Z,26.83
2022-07-30T18:43:29.999Z,28.60
2022-07-30T18:46:01.261Z,35.38
2022-07-30T18:48:30.693Z,29.40
2022-07-30T18:50:59.692Z,25.20
2022-07-30T18:53:29.737Z,22.27
2022-07-30T18:55:59.086Z,22.70
2022-07-30T18:58:28.231Z,26.27
2022-07-30T19:00:57.491Z,28.63
2022-07-30T19:03:26.449Z,26.27
2022-07-30T19:05:55.638Z,23.88
2022-07-30T19:08:24.550Z,29.77
2022-07-30T19:10:53.996Z,33.28
2022-07-30T19:13:25.083Z,26.33
2022-07-30T19:15:54.374Z,30.35
2022-07-30T19:18:23.624Z,38.30
2022-07-30T19:20:53.063Z,28.15
2022-07-30T19:23:22.377Z,23.15
2022-07-30T19:25:52.217Z,35.25
2022-07-30T19:28:21.547Z,25.83
2022-07-30T19:30:51.099Z,25.95
2022-07-30T19:33:21.527Z,23.25
2022-07-30T19:35:51.467Z,19.80
2022-07-30T19:38:22.027Z,18.65
2022-07-30T19:43:24.639Z,21.20
2022-07-30T19:45:54.478Z,15.20
2022-07-30T19:48:31.789Z,25.05
2022-07-30T19:51:02.462Z,22.75
2022-07-30T19:53:34.779Z,20.08
2022-07-30T19:56:08.367Z,21.27
2022-07-30T19:58:40.785Z,20.10
2022-07-30T20:01:12.106Z,20.60
2022-07-30T20:03:42.066Z,20.23
2022-07-30T20:06:18.146Z,21.73
2022-07-30T20:08:47.259Z,25.92
2022-07-30T20:11:34.783Z,19.17
2022-07-30T20:14:06.417Z,22.13
2022-07-30T20:16:36.557Z,22.40
2022-07-30T20:19:06.250Z,23.00
2022-07-30T20:21:56.324Z,22.70
2022-07-30T20:24:26.689Z,20.92
2022-07-30T20:26:55.807Z,15.93
2022-07-30T20:29:25.571Z,20.63
2022-07-30T20:31:56.059Z,25.17
2022-07-30T20:34:25.925Z,18.70
2022-07-30T20:36:56.928Z,17.57
2022-07-30T20:39:26.972Z,16.55
2022-07-30T20:42:14.888Z,15.45
2022-07-30T20:44:49.521Z,17.50
2022-07-30T20:47:37.494Z,14.40
2022-07-30T20:50:10.856Z,12.60
2022-07-30T20:52:46.703Z,15.30
2022-07-30T20:55:18.724Z,16.95
2022-07-30T20:57:57.141Z,14.50
2022-07-30T21:00:32.994Z,33.40
2022-07-30T21:03:03.401Z,18.65
2022-07-30T21:05:33.376Z,16.85
2022-07-30T21:08:02.739Z,16.02
2022-07-30T21:10:33.636Z,16.88
2022-07-30T21:13:07.638Z,16.48
2022-07-30T21:15:45.538Z,18.88
2022-07-30T21:18:26.590Z,16.23
2022-07-30T21:20:56.853Z,15.43
2022-07-30T21:23:28.104Z,15.35
2022-07-30T21:26:02.796Z,17.67
2022-07-30T21:28:35.636Z,16.50
2022-07-30T21:31:06.957Z,16.77
2022-07-30T21:33:38.705Z,17.25
2022-07-30T21:38:57.553Z,17.73
2022-07-30T21:41:40.433Z,15.63
2022-07-30T21:44:10.664Z,19.08
2022-07-30T21:46:41.866Z,16.50
2022-07-30T21:49:11.691Z,18.13
2022-07-30T21:51:41.073Z,16.48
2022-07-30T21:54:17.051Z,19.70
2022-07-30T21:56:56.467Z,14.38
2022-07-30T21:59:28.636Z,12.75
2022-07-30T22:01:57.930Z,18.85
2022-07-30T22:04:27.403Z,18.77
2022-07-30T22:06:56.625Z,18.63
2022-07-30T22:09:34.276Z,19.88
2022-07-30T22:12:09.062Z,19.95
2022-07-30T22:14:41.866Z,16.77
2022-07-30T22:17:22.531Z,23.63
2022-07-30T22:19:55.549Z,18.08
2022-07-30T22:22:26.602Z,18.43
2022-07-30T22:24:59.910Z,21.15
2022-07-30T22:30:13.762Z,20.52
2022-07-30T22:32:43.860Z,20.30
2022-07-30T22:35:16.223Z,20.25
2022-07-30T22:37:46.747Z,20.20
2022-07-30T22:40:17.011Z,23.40
2022-07-30T22:42:49.622Z,17.15
2022-07-30T22:45:34.108Z,22.58
2022-07-30T22:48:10.818Z,20.38
2022-07-30T22:50:41.288Z,21.17
2022-07-30T22:53:23.612Z,19.15
2022-07-30T22:56:00.039Z,21.17
2022-07-30T22:58:30.052Z,20.67
2022-07-30T23:00:59.149Z,19.15
2022-07-30T23:03:28.572Z,18.88
2022-07-30T23:05:57.790Z,21.83
2022-07-30T23:08:29.615Z,31.63
2022-07-30T23:11:02.996Z,22.77
2022-07-30T23:12:32.056Z,16.67
2022-07-30T23:13:32.259Z,19.60
2022-07-30T23:16:01.267Z,22.75
2022-07-30T23:18:30.430Z,23.38
2022-07-30T23:21:00.530Z,25.13
2022-07-30T23:23:34.329Z,21.10
2022-07-30T23:26:07.480Z,27.33
2022-07-30T23:28:37.915Z,23.52
2022-07-30T23:31:07.249Z,24.25
2022-07-30T23:33:36.324Z,21.35
2022-07-30T23:36:09.869Z,27.75
2022-07-30T23:38:39.081Z,27.40
2022-07-30T23:41:08.307Z,26.38
2022-07-30T23:43:38.820Z,26.13
2022-07-30T23:46:09.559Z,27.42
2022-07-30T23:48:40.626Z,25.52
2022-07-30T23:51:09.545Z,30.20
2022-07-30T23:53:39.079Z,28.50
2022-07-30T23:56:08.965Z,24.27
2022-07-30T23:58:40.640Z,29.42
